N8DH Weather Reports


Display with metric or nautical units.
time (UTC)temp
F
wind
direction
speed
MPH
gust
MPH
rain 1hr
in
rain 24hr
in
rain mn
in
humidity
%
barometer
mb
20240522200522 83 208 12.0 26.0 0.00 0.00 0.00 62 1001.1
20240522200020 84 224 13.0 26.0 0.00 0.00 0.00 61 1001.2
20240522195524 84 209 9.0 22.0 0.00 0.00 0.00 61 1001.2
20240522195022 85 237 13.0 21.0 0.00 0.00 0.00 60 1001.1
20240522194521 84 200 5.0 20.0 0.00 0.00 0.00 63 1001.1
20240522194018 84 227 10.0 21.0 0.00 0.00 0.00 62 1001.1
20240522193517 83 215 10.0 21.0 0.00 0.00 0.00 63 1001.0
20240522193017 83 219 11.0 18.0 0.00 0.00 0.00 64 1001.0
20240522192517 83 196 11.0 19.0 0.00 0.00 0.00 64 1001.0
20240522192016 83 189 10.0 19.0 0.00 0.00 0.00 64 1001.1
20240522191523 83 193 6.0 18.0 0.00 0.00 0.00 65 1001.1
20240522191018 82 232 5.0 17.0 0.00 0.00 0.00 67 1001.3
20240522190518 82 211 9.0 18.0 0.00 0.00 0.00 66 1001.3
20240522190013 82 252 9.0 21.0 0.00 0.00 0.00 66 1001.4
20240522185513 81 219 12.0 21.0 0.00 0.00 0.00 67 1001.4
20240522185012 81 227 6.0 19.0 0.00 0.00 0.00 67 1001.4
20240522184517 81 227 8.0 15.0 0.00 0.00 0.00 67 1001.4
20240522184010 81 184 6.0 17.0 0.00 0.00 0.00 68 1001.4
20240522183510 81 238 5.0 21.0 0.00 0.00 0.00 68 1001.5
20240522183007 80 219 8.0 18.0 0.00 0.00 0.00 68 1001.6
20240522182507 80 188 10.0 18.0 0.00 0.00 0.00 68 1001.6
20240522182006 80 225 8.0 18.0 0.00 0.00 0.00 68 1001.6
20240522181556 80 238 10.0 17.0 0.00 0.00 0.00 67 1001.6
20240522181028 80 198 3.0 17.0 0.00 0.00 0.00 68 1001.5
20240522180528 80 238 8.0 18.0 0.00 0.00 0.00 67 1001.5
20240522180028 81 184 8.0 18.0 0.00 0.00 0.00 67 1001.6
20240522175523 81 244 8.0 22.0 0.00 0.00 0.00 66 1001.5
20240522175022 81 216 10.0 22.0 0.00 0.00 0.00 66 1001.5
20240522174521 81 225 11.0 20.0 0.00 0.00 0.00 66 1001.6
20240522174017 81 205 9.0 21.0 0.00 0.00 0.00 67 1001.7
20240522173516 81 280 10.0 22.0 0.00 0.00 0.00 67 1001.7
20240522173019 81 204 8.0 22.0 0.00 0.00 0.00 68 1001.8
20240522172520 80 194 11.0 19.0 0.00 0.00 0.00 68 1001.9
20240522172016 80 227 6.0 17.0 0.00 0.00 0.00 69 1002.0
20240522171519 79 252 7.0 17.0 0.00 0.00 0.00 70 1001.9
20240522171012 79 231 6.0 19.0 0.00 0.00 0.00 71 1001.8
20240522170512 78 206 8.0 22.0 0.00 0.00 0.00 72 1001.8
20240522170016 78 223 11.0 22.0 0.00 0.00 0.00 71 1002.0
20240522165506 78 254 6.0 19.0 0.00 0.00 0.00 71 1002.2
20240522165007 78 222 5.0 15.0 0.00 0.00 0.00 71 1002.2
20240522164511 78 211 6.0 14.0 0.00 0.00 0.00 71 1002.2
20240522164008 78 220 8.0 14.0 0.00 0.00 0.00 71 1002.1
20240522163508 78 246 5.0 18.0 0.00 0.00 0.00 71 1002.1
20240522163036 78 236 3.0 19.0 0.00 0.00 0.00 72 1002.0
20240522162523 77 199 10.0 19.0 0.00 0.00 0.00 72 1002.1
20240522162028 77 246 6.0 17.0 0.00 0.00 0.00 72 1002.1
20240522161524 77 209 3.0 20.0 0.00 0.00 0.00 72 1002.2
20240522161024 77 231 9.0 21.0 0.00 0.00 0.00 71 1002.3
20240522160524 78 221 12.0 21.0 0.00 0.00 0.00 70 1002.4
20240522160036 78 229 10.0 23.0 0.00 0.00 0.00 70 1002.3
20240522155522 78 217 11.0 23.0 0.00 0.00 0.00 69 1002.3
20240522155021 78 232 5.0 19.0 0.00 0.00 0.00 69 1002.2
20240522154517 78 238 7.0 21.0 0.00 0.00 0.00 69 1002.2
20240522154016 78 226 7.0 22.0 0.00 0.00 0.00 68 1002.3
20240522153516 78 223 12.0 22.0 0.00 0.00 0.00 67 1002.3
20240522153030 79 223 5.0 20.0 0.00 0.00 0.00 67 1002.3
20240522152523 79 239 6.0 23.0 0.00 0.00 0.00 67 1002.1
20240522152024 80 229 11.0 19.0 0.00 0.00 0.00 66 1002.0
20240522151518 80 251 6.0 18.0 0.00 0.00 0.00 67 1002.0
20240522151015 80 219 10.0 17.0 0.00 0.00 0.00 66 1002.0
20240522150515 80 201 7.0 17.0 0.00 0.00 0.00 67 1002.0
20240522150016 80 212 5.0 16.0 0.00 0.00 0.00 67 1002.1
20240522145514 79 223 4.0 16.0 0.00 0.00 0.00 69 1002.0
20240522145013 78 210 6.0 14.0 0.00 0.00 0.00 70 1002.1
20240522144519 78 217 6.0 14.0 0.00 0.00 0.00 72 1002.1
20240522144018 77 200 5.0 12.0 0.00 0.00 0.00 74 1002.1
20240522143515 77 203 1.0 12.0 0.00 0.00 0.00 73 1002.2
20240522143013 76 220 0.0 15.0 0.00 0.00 0.00 73 1002.3
20240522142513 77 225 3.0 16.0 0.00 0.00 0.00 71 1002.3
20240522142013 77 193 6.0 18.0 0.00 0.00 0.00 70 1002.3
20240522141523 77 218 5.0 21.0 0.00 0.00 0.00 69 1002.3
20240522141014 78 235 4.0 15.0 0.00 0.00 0.00 70 1002.3
20240522140514 78 222 3.0 13.0 0.00 0.00 0.00 69 1002.3
20240522140012 78 199 3.0 11.0 0.00 0.00 0.00 69 1002.3
20240522135515 78 217 6.0 16.0 0.00 0.00 0.00 67 1002.1
20240522135011 78 214 5.0 18.0 0.00 0.00 0.00 67 1002.1
20240522134520 79 224 11.0 18.0 0.00 0.00 0.00 66 1002.2
20240522134014 78 226 1.0 10.0 0.00 0.00 0.00 68 1002.1
20240522133511 78 250 1.0 15.0 0.00 0.00 0.00 68 1002.3
20240522133056 78 236 5.0 15.0 0.00 0.00 0.00 68 1002.4
20240522132554 77 240 6.0 15.0 0.00 0.00 0.00 69 1002.4
20240522132054 77 232 6.0 13.0 0.00 0.00 0.00 70 1002.4
20240522131523 77 236 3.0 11.0 0.00 0.00 0.00 70 1002.2
20240522131022 77 195 0.0 16.0 0.00 0.00 0.00 70 1002.2
20240522130521 77 220 6.0 16.0 0.00 0.00 0.00 69 1002.2
20240522130022 77 196 0.0 15.0 0.00 0.00 0.00 69 1002.2
20240522125522 77 210 3.0 15.0 0.00 0.00 0.00 69 1002.1
20240522125024 77 225 1.0 9.0 0.00 0.00 0.00 69 1002.0
20240522124518 77 196 1.0 9.0 0.00 0.00 0.00 68 1002.0
20240522124017 77 207 0.0 16.0 0.00 0.00 0.00 69 1001.9
20240522123516 77 200 4.0 16.0 0.00 0.00 0.00 69 1002.0
20240522123020 77 201 2.0 12.0 0.00 0.00 0.00 69 1002.0
20240522122518 77 197 1.0 7.0 0.00 0.00 0.00 70 1002.0
20240522122016 76 214 1.0 9.0 0.00 0.00 0.00 71 1002.0
20240522121519 76 215 2.0 9.0 0.00 0.00 0.00 71 1002.0
20240522121017 75 207 1.0 12.0 0.00 0.00 0.00 73 1002.0
20240522120516 75 190 0.0 12.0 0.00 0.00 0.00 73 1002.0
20240522120018 74 215 1.0 6.0 0.00 0.00 0.00 73 1002.1
20240522115514 74 212 0.0 4.0 0.00 0.00 0.00 73 1002.0
20240522115013 74 200 0.0 7.0 0.00 0.00 0.00 73 1002.0
20240522114510 74 213 1.0 7.0 0.00 0.00 0.00 74 1002.0
20240522114005 74 180 1.0 9.0 0.00 0.00 0.00 74 1002.0
20240522113505 73 192 1.0 9.0 0.00 0.00 0.00 76 1002.0
20240522113035 73 186 0.0 5.0 0.00 0.00 0.00 76 1002.0
20240522112525 72 195 0.0 7.0 0.00 0.00 0.00 77 1002.0
20240522112024 72 206 0.0 7.0 0.00 0.00 0.00 77 1002.0
20240522111527 72 200 0.0 6.0 0.00 0.00 0.00 77 1002.1
20240522111029 72 213 0.0 6.0 0.00 0.00 0.00 77 1002.0
20240522110523 72 194 0.0 6.0 0.00 0.00 0.00 77 1002.1
20240522110028 71 183 0.0 7.0 0.00 0.00 0.00 78 1002.1
20240522105528 71 194 0.0 7.0 0.00 0.00 0.00 78 1002.1
20240522105026 71 176 0.0 6.0 0.00 0.00 0.00 78 1002.1
20240522104523 71 188 0.0 7.0 0.00 0.00 0.00 78 1002.0
20240522104022 71 198 0.0 7.0 0.00 0.00 0.00 78 1002.0
20240522103522 71 192 1.0 7.0 0.00 0.00 0.00 78 1002.0
20240522103020 71 192 2.0 7.0 0.00 0.00 0.00 78 1001.9
20240522102519 71 189 1.0 11.0 0.00 0.00 0.00 78 1001.9
20240522102018 71 179 2.0 11.0 0.00 0.00 0.00 78 1001.9
20240522101523 71 184 2.0 7.0 0.00 0.00 0.00 77 1001.8
20240522101020 71 203 0.0 7.0 0.00 0.00 0.00 77 1001.6
20240522100518 71 192 0.0 7.0 0.00 0.00 0.00 77 1001.7
20240522100015 72 212 0.0 7.0 0.00 0.00 0.00 77 1001.7
20240522095515 72 192 0.0 7.0 0.00 0.00 0.00 76 1001.9
20240522095015 72 185 0.0 5.0 0.00 0.00 0.00 76 1001.8
20240522094518 72 173 0.0 8.0 0.00 0.00 0.00 76 1001.8
20240522094014 72 220 1.0 8.0 0.00 0.00 0.00 76 1001.8
20240522093512 72 211 1.0 10.0 0.00 0.00 0.00 76 1001.8
20240522093055 72 198 2.0 10.0 0.00 0.00 0.00 76 1001.8
20240522092551 72 205 0.0 7.0 0.00 0.00 0.00 76 1001.7
20240522092052 72 184 2.0 8.0 0.00 0.00 0.00 76 1001.7
20240522091535 72 185 1.0 8.0 0.00 0.00 0.00 76 1001.7
20240522091023 72 190 1.0 8.0 0.00 0.00 0.00 76 1001.7
20240522090523 72 196 1.0 7.0 0.00 0.00 0.00 76 1001.8
20240522090006 72 180 0.0 7.0 0.00 0.00 0.00 76 1001.9
20240522085506 72 166 0.0 6.0 0.00 0.00 0.00 76 1001.9
20240522085005 72 183 1.0 7.0 0.00 0.00 0.00 76 1001.9
20240522084525 72 203 1.0 8.0 0.00 0.00 0.00 77 1001.9
20240522084025 72 200 1.0 8.0 0.00 0.00 0.00 77 1002.1
20240522083525 71 196 1.0 7.0 0.00 0.00 0.00 77 1002.1
20240522083021 71 175 2.0 7.0 0.00 0.00 0.00 78 1002.0
20240522082521 71 198 1.0 7.0 0.00 0.00 0.00 78 1001.9
20240522082021 71 183 0.0 5.0 0.00 0.00 0.00 78 1002.0
20240522081524 71 196 0.0 3.0 0.00 0.00 0.00 77 1002.1
20240522081025 71 202 0.0 3.0 0.00 0.00 0.00 77 1002.1
20240522080526 72 188 0.0 1.0 0.00 0.00 0.00 77 1002.0
20240522080020 72 185 0.0 5.0 0.00 0.00 0.00 77 1002.0
20240522075519 72 177 0.0 5.0 0.00 0.00 0.00 77 1002.2
20240522075019 72 183 0.0 5.0 0.00 0.00 0.00 76 1002.2
20240522074520 72 186 0.0 4.0 0.00 0.00 0.00 76 1002.3
20240522074020 72 198 0.0 2.0 0.00 0.00 0.00 76 1002.4
20240522073519 72 187 0.0 4.0 0.00 0.00 0.00 76 1002.5
20240522073018 72 214 0.0 4.0 0.00 0.00 0.00 76 1002.5
20240522072518 72 203 0.0 4.0 0.00 0.00 0.00 75 1002.5
20240522072019 72 200 0.0 4.0 0.00 0.00 0.00 75 1002.5
20240522071515 72 202 0.0 4.0 0.00 0.00 0.00 75 1002.6
20240522071018 73 179 0.0 4.0 0.00 0.00 0.00 75 1002.6
20240522070516 73 189 0.0 3.0 0.00 0.00 0.00 74 1002.6
20240522070033 73 184 0.0 3.0 0.00 0.00 0.00 74 1002.7
20240522065514 73 184 0.0 3.0 0.00 0.00 0.00 74 1002.6
20240522065014 73 190 0.0 1.0 0.00 0.00 0.00 74 1002.8
20240522064513 73 202 0.0 3.0 0.00 0.00 0.00 74 1002.9
20240522064010 73 195 0.0 6.0 0.00 0.00 0.00 73 1003.1
20240522063510 73 186 0.0 6.0 0.00 0.00 0.00 73 1003.1
20240522063010 73 190 0.0 1.0 0.00 0.00 0.00 73 1003.2
20240522062505 73 192 0.0 5.0 0.00 0.00 0.00 73 1003.2
20240522062005 73 187 0.0 3.0 0.00 0.00 0.00 72 1003.3
20240522061507 73 202 0.0 1.0 0.00 0.00 0.00 72 1003.3
20240522061007 73 186 0.0 5.0 0.00 0.00 0.00 72 1003.3
20240522060506 73 198 0.0 5.0 0.00 0.00 0.00 72 1003.4
20240522060025 73 202 0.0 2.0 0.00 0.00 0.00 71 1003.4
20240522055523 73 195 0.0 0.0 0.00 0.00 0.00 71 1003.5
20240522055023 74 189 0.0 0.0 0.00 0.00 0.00 71 1003.5
20240522054517 74 191 0.0 7.0 0.00 0.00 0.00 71 1003.5
20240522054009 74 187 0.0 7.0 0.00 0.00 0.00 71 1003.4
20240522053506 74 192 0.0 2.0 0.00 0.00 0.00 70 1003.3
20240522053023 74 196 0.0 2.0 0.00 0.00 0.00 70 1003.2
20240522052522 74 200 0.0 5.0 0.00 0.00 0.00 70 1003.2
20240522052023 74 210 0.0 5.0 0.00 0.00 0.00 70 1003.2
20240522051523 74 209 0.0 5.0 0.00 0.00 0.00 70 1003.2
20240522051023 74 204 0.0 2.0 0.00 0.00 0.00 70 1003.1
20240522050522 74 199 0.0 0.0 0.00 0.00 0.00 70 1003.0
20240522050021 74 202 0.0 4.0 0.00 0.00 0.00 70 1003.0
20240522045521 74 198 0.0 4.0 0.00 0.00 0.00 70 1002.8
20240522045023 74 207 0.0 0.0 0.00 0.00 0.00 71 1002.7
20240522044523 74 215 0.0 8.0 0.00 0.00 0.00 70 1002.6
20240522044022 73 208 0.0 8.0 0.00 0.00 0.00 71 1002.5
20240522043521 73 203 0.0 5.0 0.00 0.00 0.00 71 1002.5
20240522043016 73 190 0.0 5.0 0.00 0.00 0.00 71 1002.3
20240522042517 73 184 0.0 1.0 0.00 0.00 0.00 70 1002.2
20240522042014 74 196 0.0 1.0 0.00 0.00 0.00 70 1002.2
20240522041529 74 186 0.0 4.0 0.00 0.00 0.00 70 1002.2
20240522041016 74 201 0.0 5.0 0.00 0.00 0.00 70 1002.1
20240522040514 74 190 0.0 5.0 0.00 0.00 0.00 70 1002.1
20240522040013 74 190 0.0 5.0 0.00 0.00 0.00 69 1002.2
20240522035511 74 186 0.0 5.0 0.00 0.00 0.00 69 1002.3
20240522035013 74 188 0.0 5.0 0.00 0.00 0.00 68 1002.5
20240522034554 74 205 0.0 6.0 0.00 0.00 0.00 68 1002.5
20240522034055 74 189 0.0 6.0 0.00 0.00 0.00 68 1002.5
20240522033555 75 193 0.0 5.0 0.00 0.00 0.00 68 1002.5
20240522033025 75 190 0.0 5.0 0.00 0.00 0.00 67 1002.5
20240522032523 75 196 0.0 5.0 0.00 0.00 0.00 67 1002.5
20240522032026 75 181 0.0 5.0 0.00 0.00 0.00 67 1002.5
20240522031501 75 182 0.0 4.0 0.00 0.00 0.00 66 1002.6
20240522031002 75 193 0.0 2.0 0.00 0.00 0.00 66 1002.6
20240522030502 76 186 0.0 4.0 0.00 0.00 0.00 66 1002.6
20240522030024 76 182 0.0 3.0 0.00 0.00 0.00 65 1002.6
20240522025523 76 194 0.0 3.0 0.00 0.00 0.00 65 1002.6
20240522025023 76 189 0.0 1.0 0.00 0.00 0.00 64 1002.7
20240522024526 76 179 0.0 1.0 0.00 0.00 0.00 64 1002.5
20240522024026 76 192 0.0 0.0 0.00 0.00 0.00 63 1002.5
20240522023524 76 201 0.0 5.0 0.00 0.00 0.00 63 1002.5
20240522023026 77 204 0.0 5.0 0.00 0.00 0.00 63 1002.4
20240522022526 77 213 0.0 6.0 0.00 0.00 0.00 63 1002.3
20240522022026 77 212 0.0 6.0 0.00 0.00 0.00 63 1002.2
20240522021520 77 199 0.0 7.0 0.00 0.00 0.00 63 1002.1
20240522021020 77 183 0.0 7.0 0.00 0.00 0.00 63 1002.2
20240522020520 77 192 1.0 6.0 0.00 0.00 0.00 63 1002.0
20240522020020 77 176 0.0 6.0 0.00 0.00 0.00 63 1001.9
20240522015520 77 195 0.0 6.0 0.00 0.00 0.00 63 1001.9
20240522015017 77 187 0.0 4.0 0.00 0.00 0.00 63 1002.0
20240522014522 77 185 0.0 2.0 0.00 0.00 0.00 62 1002.0
20240522014020 77 186 0.0 2.0 0.00 0.00 0.00 62 1002.0
20240522013518 77 186 0.0 0.0 0.00 0.00 0.00 62 1002.0
20240522013015 77 185 0.0 0.0 0.00 0.00 0.00 61 1002.0
20240522012514 78 167 0.0 0.0 0.00 0.00 0.00 61 1002.0
20240522012014 78 171 0.0 0.0 0.00 0.00 0.00 60 1002.2
20240522011510 78 185 0.0 3.0 0.00 0.00 0.00 59 1002.1
20240522011011 79 182 0.0 3.0 0.00 0.00 0.00 59 1002.1
20240522010510 79 188 0.0 0.0 0.00 0.00 0.00 58 1002.1
20240522010011 79 184 0.0 0.0 0.00 0.00 0.00 57 1002.2
20240522005513 80 186 0.0 0.0 0.00 0.00 0.00 56 1002.1
20240522005013 80 187 0.0 0.0 0.00 0.00 0.00 56 1002.1
20240522004509 81 187 0.0 0.0 0.00 0.00 0.00 55 1002.2
20240522004009 81 187 0.0 2.0 0.00 0.00 0.00 54 1002.3
20240522003513 82 185 0.0 2.0 0.00 0.00 0.00 54 1002.2
20240522003008 82 198 0.0 3.0 0.00 0.00 0.00 53 1002.2
20240522002509 82 185 0.0 3.0 0.00 0.00 0.00 52 1002.3
20240522002008 83 193 0.0 4.0 0.00 0.00 0.00 52 1002.3
20240522001508 84 182 0.0 4.0 0.00 0.00 0.00 51 1002.2
20240522001008 84 184 0.0 3.0 0.00 0.00 0.00 50 1002.3
20240522000506 85 153 0.0 4.0 0.00 0.00 0.00 49 1002.3
20240522000027 85 188 0.0 4.0 0.00 0.00 0.00 48 1002.3
20240521235526 85 206 0.0 1.0 0.00 0.00 0.00 46 1002.4
20240521235025 86 200 0.0 1.0 0.00 0.00 0.00 46 1002.5
20240521234524 86 213 0.0 1.0 0.00 0.00 0.00 46 1002.5
20240521234023 86 208 0.0 0.0 0.00 0.00 0.00 46 1002.6
20240521233524 86 196 0.0 4.0 0.00 0.00 0.00 46 1002.7
20240521233023 86 190 0.0 7.0 0.00 0.00 0.00 45 1002.6
20240521232524 87 185 0.0 6.0 0.00 0.00 0.00 44 1002.6
20240521232023 87 209 0.0 10.0 0.00 0.00 0.00 43 1002.7
20240521231527 87 229 0.0 10.0 0.00 0.00 0.00 44 1002.7
20240521231020 88 178 0.0 9.0 0.00 0.00 0.00 43 1002.6
20240521230520 88 210 0.0 4.0 0.00 0.00 0.00 43 1002.6
20240521230021 88 240 0.0 12.0 0.00 0.00 0.00 43 1002.6
20240521225523 88 217 3.0 12.0 0.00 0.00 0.00 43 1002.6
20240521225021 88 193 0.0 11.0 0.00 0.00 0.00 44 1002.5
20240521224518 88 200 0.0 7.0 0.00 0.00 0.00 43 1002.6
20240521224019 88 244 0.0 8.0 0.00 0.00 0.00 44 1002.6
20240521223519 89 209 0.0 8.0 0.00 0.00 0.00 42 1002.5
20240521223018 89 219 0.0 8.0 0.00 0.00 0.00 42 1002.6
20240521222518 89 226 0.0 8.0 0.00 0.00 0.00 42 1002.6
20240521222018 89 204 1.0 12.0 0.00 0.00 0.00 41 1002.7
20240521221516 89 225 0.0 11.0 0.00 0.00 0.00 42 1002.7
20240521221019 89 266 1.0 9.0 0.00 0.00 0.00 41 1002.8
20240521220514 89 244 0.0 8.0 0.00 0.00 0.00 43 1002.7
20240521220012 89 240 0.0 13.0 0.00 0.00 0.00 43 1002.8
20240521215512 89 238 1.0 13.0 0.00 0.00 0.00 42 1002.8
20240521215011 89 244 0.0 12.0 0.00 0.00 0.00 41 1002.9
20240521214513 90 235 4.0 12.0 0.00 0.00 0.00 40 1002.9
20240521214017 90 208 1.0 9.0 0.00 0.00 0.00 41 1002.9
20240521213512 90 219 0.0 6.0 0.00 0.00 0.00 40 1002.9
20240521213014 90 236 0.0 7.0 0.00 0.00 0.00 42 1003.0
20240521212511 90 250 0.0 13.0 0.00 0.00 0.00 42 1003.1
20240521212011 90 249 4.0 13.0 0.00 0.00 0.00 41 1003.1
20240521211515 90 188 0.0 8.0 0.00 0.00 0.00 42 1003.1
20240521211014 90 219 0.0 5.0 0.00 0.00 0.00 42 1003.2
20240521210513 90 215 0.0 10.0 0.00 0.00 0.00 42 1003.3
20240521210012 90 198 2.0 10.0 0.00 0.00 0.00 41 1003.3
20240521205509 89 246 0.0 10.0 0.00 0.00 0.00 44 1003.3
20240521205007 89 249 2.0 13.0 0.00 0.00 0.00 43 1003.4
20240521204532 89 217 4.0 13.0 0.00 0.00 0.00 42 1003.4
20240521204026 89 223 2.0 13.0 0.00 0.00 0.00 42 1003.5
20240521203526 88 240 0.0 10.0 0.00 0.00 0.00 45 1003.5
20240521203030 88 239 0.0 13.0 0.00 0.00 0.00 45 1003.7
20240521202527 88 228 3.0 10.0 0.00 0.00 0.00 45 1003.7
20240521202025 88 219 0.0 10.0 0.00 0.00 0.00 45 1003.8
20240521201523 89 244 2.0 10.0 0.00 0.00 0.00 43 1003.8
20240521201022 89 185 1.0 17.0 0.00 0.00 0.00 44 1003.9